Map

Track Data

SID SEASON NUMBER BASIN SUBBASIN NAME ISO_TIME NATURE LAT LON WMO_WIND WMO_PRES WMO_AGENCY TRACK_TYPE DIST2LAND LANDFALL IFLAG USA_AGENCY USA_ATCF_ID USA_LAT USA_LON USA_RECORD USA_STATUS USA_WIND USA_PRES USA_SSHS USA_R34_NE USA_R34_SE USA_R34_SW USA_R34_NW USA_R50_NE USA_R50_SE USA_R50_SW USA_R50_NW USA_R64_NE USA_R64_SE USA_R64_SW USA_R64_NW USA_POCI USA_ROCI USA_RMW USA_EYE TOKYO_LAT TOKYO_LON TOKYO_GRADE TOKYO_WIND TOKYO_PRES TOKYO_R50_DIR TOKYO_R50_LONG TOKYO_R50_SHORT TOKYO_R30_DIR TOKYO_R30_LONG TOKYO_R30_SHORT TOKYO_LAND CMA_LAT CMA_LON CMA_CAT CMA_WIND CMA_PRES HKO_LAT HKO_LON HKO_CAT HKO_WIND HKO_PRES NEWDELHI_LAT NEWDELHI_LON NEWDELHI_GRADE NEWDELHI_WIND NEWDELHI_PRES NEWDELHI_CI NEWDELHI_DP NEWDELHI_POCI REUNION_LAT REUNION_LON REUNION_TYPE REUNION_WIND REUNION_PRES REUNION_TNUM REUNION_CI REUNION_RMW REUNION_R34_NE REUNION_R34_SE REUNION_R34_SW REUNION_R34_NW REUNION_R50_NE REUNION_R50_SE REUNION_R50_SW REUNION_R50_NW REUNION_R64_NE REUNION_R64_SE REUNION_R64_SW REUNION_R64_NW BOM_LAT BOM_LON BOM_TYPE BOM_WIND BOM_PRES BOM_TNUM BOM_CI BOM_RMW BOM_R34_NE BOM_R34_SE BOM_R34_SW BOM_R34_NW BOM_R50_NE BOM_R50_SE BOM_R50_SW BOM_R50_NW BOM_R64_NE BOM_R64_SE BOM_R64_SW BOM_R64_NW BOM_ROCI BOM_POCI BOM_EYE BOM_POS_METHOD BOM_PRES_METHOD NADI_LAT NADI_LON NADI_CAT NADI_WIND NADI_PRES WELLINGTON_LAT WELLINGTON_LON WELLINGTON_WIND WELLINGTON_PRES DS824_LAT DS824_LON DS824_STAGE DS824_WIND DS824_PRES TD9636_LAT TD9636_LON TD9636_STAGE TD9636_WIND TD9636_PRES TD9635_LAT TD9635_LON TD9635_WIND TD9635_PRES TD9635_ROCI NEUMANN_LAT NEUMANN_LON NEUMANN_CLASS NEUMANN_WIND NEUMANN_PRES MLC_LAT MLC_LON MLC_CLASS MLC_WIND MLC_PRES USA_GUST BOM_GUST BOM_GUST_PER REUNION_GUST REUNION_GUST_PER USA_SEAHGT USA_SEARAD_NE USA_SEARAD_SE USA_SEARAD_SW USA_SEARAD_NW STORM_SPEED STORM_DIR
1943240N26142 1943 57 WP MM NOT_NAMED 1943-08-27 12:00:00 NR 25.8000 141.800 main 1023 947 __________O___ -1 25.8000 141.800 4 16 309
1943240N26142 1943 57 WP MM NOT_NAMED 1943-08-27 15:00:00 NR 26.2894 141.130 main 942 873 __________P___ -1 26.2894 141.130 4 15 309
1943240N26142 1943 57 WP MM NOT_NAMED 1943-08-27 18:00:00 NR 26.7415 140.505 main 873 810 __________P___ -1 26.7415 140.505 4 13 309
1943240N26142 1943 57 WP MM NOT_NAMED 1943-08-27 21:00:00 NR 27.1227 139.977 main 810 761 __________P___ -1 27.1227 139.977 4 10 309
1943240N26142 1943 57 WP MM NOT_NAMED 1943-08-28 00:00:00 NR 27.4000 139.600 main 761 742 __________O___ -1 27.4000 139.600 4 7 310
1943240N26142 1943 57 WP MM NOT_NAMED 1943-08-28 03:00:00 NR 27.5533 139.408 main 732 732 __________P___ -1 27.5533 139.408 4 3 314
1943240N26142 1943 57 WP MM NOT_NAMED 1943-08-28 06:00:00 NR 27.6109 139.355 main 732 732 __________P___ -1 27.6109 139.355 4 1 331
1943240N26142 1943 57 WP MM NOT_NAMED 1943-08-28 09:00:00 NR 27.6132 139.374 main 732 732 __________P___ -1 27.6132 139.374 4 0 106
1943240N26142 1943 57 WP MM NOT_NAMED 1943-08-28 12:00:00 NR 27.6000 139.400 main 732 732 __________O___ -1 27.6000 139.400 4 0 0
1943240N26142 1943 57 WP MM NOT_NAMED 1943-08-28 15:00:00 NR 27.6240 139.348 main 728 728 __________P___ -1 27.6240 139.348 4 1 294
1943240N26142 1943 57 WP MM NOT_NAMED 1943-08-28 18:00:00 NR 27.6424 139.287 main 728 714 __________P___ -1 27.6424 139.287 4 1 288
1943240N26142 1943 57 WP MM NOT_NAMED 1943-08-28 21:00:00 NR 27.6646 139.208 main 714 709 __________P___ -1 27.6646 139.208 4 2 289
1943240N26142 1943 57 WP MM NOT_NAMED 1943-08-29 00:00:00 NR 27.7000 139.100 main 709 695 __________O___ -1 27.7000 139.100 4 2 293
1943240N26142 1943 57 WP MM NOT_NAMED 1943-08-29 03:00:00 NR 27.7565 138.966 main 695 687 __________P___ -1 27.7565 138.966 4 3 296
1943240N26142 1943 57 WP MM NOT_NAMED 1943-08-29 06:00:00 NR 27.8274 138.802 main 687 669 __________P___ -1 27.8274 138.802 4 3 296
1943240N26142 1943 57 WP MM NOT_NAMED 1943-08-29 09:00:00 NR 27.9096 138.613 main 669 651 __________P___ -1 27.9096 138.613 4 4 296
1943240N26142 1943 57 WP MM NOT_NAMED 1943-08-29 12:00:00 NR 28.0000 138.400 main 651 634 __________O___ -1 28.0000 138.400 4 4 295
1943240N26142 1943 57 WP MM NOT_NAMED 1943-08-29 15:00:00 NR 28.0959 138.168 main 634 613 __________P___ -1 28.0959 138.168 4 5 295
1943240N26142 1943 57 WP MM NOT_NAMED 1943-08-29 18:00:00 NR 28.1954 137.920 main 613 597 __________P___ -1 28.1954 137.920 4 5 294
1943240N26142 1943 57 WP MM NOT_NAMED 1943-08-29 21:00:00 NR 28.2973 137.663 main 597 578 __________P___ -1 28.2973 137.663 4 5 294
1943240N26142 1943 57 WP MM NOT_NAMED 1943-08-30 00:00:00 NR 28.4000 137.400 main 578 __________O___ -1 28.4000 137.400 4 5 294

Digital Typhoon Data and Search

About IBTrACS Database

This database is a web-friendly format of International Best Track Archive for Climate Stewardship (IBTrACS), a global best track data archive curated by NOAA dating back to 1842.

Updated: 2021-10-08